sensor_id;sensor_type;location;lat;lon;timestamp;temperature;humidity
2465;DHT22;1244;54.326;10.074;2022-12-18T00:00:45;-5.00;99.90
2465;DHT22;1244;54.326;10.074;2022-12-18T00:03:12;-5.00;99.90
2465;DHT22;1244;54.326;10.074;2022-12-18T00:05:49;-5.10;99.90
2465;DHT22;1244;54.326;10.074;2022-12-18T00:08:15;-5.00;99.90
2465;DHT22;1244;54.326;10.074;2022-12-18T00:10:41;-5.10;99.90
2465;DHT22;1244;54.326;10.074;2022-12-18T00:13:07;-5.00;99.90
2465;DHT22;1244;54.326;10.074;2022-12-18T00:15:36;-5.00;99.90
2465;DHT22;1244;54.326;10.074;2022-12-18T00:18:02;-5.00;99.90
2465;DHT22;1244;54.326;10.074;2022-12-18T00:20:27;-4.90;99.90
2465;DHT22;1244;54.326;10.074;2022-12-18T00:22:53;-5.00;99.90
2465;DHT22;1244;54.326;10.074;2022-12-18T00:25:19;-5.00;99.90
2465;DHT22;1244;54.326;10.074;2022-12-18T00:27:45;-5.00;99.90
2465;DHT22;1244;54.326;10.074;2022-12-18T00:30:11;-5.00;99.90
2465;DHT22;1244;54.326;10.074;2022-12-18T00:32:36;-4.90;99.90
2465;DHT22;1244;54.326;10.074;2022-12-18T00:35:03;-5.00;99.90
2465;DHT22;1244;54.326;10.074;2022-12-18T00:37:29;-5.00;99.90
2465;DHT22;1244;54.326;10.074;2022-12-18T00:39:54;-5.10;99.90
2465;DHT22;1244;54.326;10.074;2022-12-18T00:42:20;-5.00;99.90
2465;DHT22;1244;54.326;10.074;2022-12-18T00:45:04;-5.10;99.90
2465;DHT22;1244;54.326;10.074;2022-12-18T00:47:29;-5.10;99.90
2465;DHT22;1244;54.326;10.074;2022-12-18T00:49:55;-5.10;99.90
2465;DHT22;1244;54.326;10.074;2022-12-18T00:52:20;-5.10;99.90
2465;DHT22;1244;54.326;10.074;2022-12-18T00:54:46;-5.10;99.90
2465;DHT22;1244;54.326;10.074;2022-12-18T00:57:11;-5.20;99.90
2465;DHT22;1244;54.326;10.074;2022-12-18T00:59:37;-5.10;99.90
2465;DHT22;1244;54.326;10.074;2022-12-18T01:02:02;-5.10;99.90
2465;DHT22;1244;54.326;10.074;2022-12-18T01:04:30;-5.10;99.90
2465;DHT22;1244;54.326;10.074;2022-12-18T01:06:56;-5.10;99.90
2465;DHT22;1244;54.326;10.074;2022-12-18T01:09:21;-5.10;99.90
2465;DHT22;1244;54.326;10.074;2022-12-18T01:11:47;-5.10;99.90
2465;DHT22;1244;54.326;10.074;2022-12-18T01:14:12;-5.00;99.90
2465;DHT22;1244;54.326;10.074;2022-12-18T01:16:38;-5.00;99.90
2465;DHT22;1244;54.326;10.074;2022-12-18T01:19:03;-5.10;99.90
2465;DHT22;1244;54.326;10.074;2022-12-18T01:21:29;-5.10;99.90
2465;DHT22;1244;54.326;10.074;2022-12-18T01:23:55;-5.10;99.90
2465;DHT22;1244;54.326;10.074;2022-12-18T01:26:21;-5.10;99.90
2465;DHT22;1244;54.326;10.074;2022-12-18T01:28:47;-5.20;99.90
2465;DHT22;1244;54.326;10.074;2022-12-18T01:31:19;-5.20;99.90
2465;DHT22;1244;54.326;10.074;2022-12-18T01:33:48;-5.30;99.90
2465;DHT22;1244;54.326;10.074;2022-12-18T01:38:44;-5.20;99.90
2465;DHT22;1244;54.326;10.074;2022-12-18T01:41:09;-5.30;99.90
2465;DHT22;1244;54.326;10.074;2022-12-18T01:43:55;-5.20;99.90
2465;DHT22;1244;54.326;10.074;2022-12-18T01:46:26;-5.20;99.90
2465;DHT22;1244;54.326;10.074;2022-12-18T01:48:55;-5.20;99.90
2465;DHT22;1244;54.326;10.074;2022-12-18T01:51:22;-5.20;99.90
2465;DHT22;1244;54.326;10.074;2022-12-18T01:53:48;-5.20;99.90
2465;DHT22;1244;54.326;10.074;2022-12-18T01:56:16;-5.20;99.90
2465;DHT22;1244;54.326;10.074;2022-12-18T01:58:56;-5.20;99.90
2465;DHT22;1244;54.326;10.074;2022-12-18T02:01:24;-5.20;99.90
2465;DHT22;1244;54.326;10.074;2022-12-18T02:03:50;-5.10;99.90
2465;DHT22;1244;54.326;10.074;2022-12-18T02:09:13;-5.10;99.90
2465;DHT22;1244;54.326;10.074;2022-12-18T02:12:04;-5.20;99.90
2465;DHT22;1244;54.326;10.074;2022-12-18T02:17:15;-5.30;99.90
2465;DHT22;1244;54.326;10.074;2022-12-18T02:25:40;-5.20;99.90
2465;DHT22;1244;54.326;10.074;2022-12-18T02:28:11;-5.20;99.90
2465;DHT22;1244;54.326;10.074;2022-12-18T02:30:39;-5.20;99.90
2465;DHT22;1244;54.326;10.074;2022-12-18T02:33:07;-5.20;99.90
2465;DHT22;1244;54.326;10.074;2022-12-18T02:35:34;-5.20;99.90
2465;DHT22;1244;54.326;10.074;2022-12-18T02:38:03;-5.20;99.90
2465;DHT22;1244;54.326;10.074;2022-12-18T02:40:29;-5.10;99.90
2465;DHT22;1244;54.326;10.074;2022-12-18T02:42:55;-5.20;99.90
2465;DHT22;1244;54.326;10.074;2022-12-18T02:45:27;-5.10;99.90
2465;DHT22;1244;54.326;10.074;2022-12-18T02:47:52;-5.20;99.90
2465;DHT22;1244;54.326;10.074;2022-12-18T02:53:06;-5.20;99.90
2465;DHT22;1244;54.326;10.074;2022-12-18T02:56:15;-5.20;99.90
2465;DHT22;1244;54.326;10.074;2022-12-18T02:59:02;-5.20;99.90
2465;DHT22;1244;54.326;10.074;2022-12-18T03:06:54;-5.20;99.90
2465;DHT22;1244;54.326;10.074;2022-12-18T03:09:34;-5.20;99.90
2465;DHT22;1244;54.326;10.074;2022-12-18T03:15:22;-5.20;99.90
2465;DHT22;1244;54.326;10.074;2022-12-18T03:17:56;-5.20;99.90
2465;DHT22;1244;54.326;10.074;2022-12-18T03:20:23;-5.20;99.90
2465;DHT22;1244;54.326;10.074;2022-12-18T03:22:53;-5.30;99.90
2465;DHT22;1244;54.326;10.074;2022-12-18T03:25:21;-5.30;99.90
2465;DHT22;1244;54.326;10.074;2022-12-18T03:27:51;-5.30;99.90
2465;DHT22;1244;54.326;10.074;2022-12-18T03:30:19;-5.30;99.90
2465;DHT22;1244;54.326;10.074;2022-12-18T03:32:55;-5.40;99.90
2465;DHT22;1244;54.326;10.074;2022-12-18T03:35:26;-5.30;99.90
2465;DHT22;1244;54.326;10.074;2022-12-18T03:37:53;-5.40;99.90
2465;DHT22;1244;54.326;10.074;2022-12-18T03:40:21;-5.40;99.90
2465;DHT22;1244;54.326;10.074;2022-12-18T03:43:02;-5.40;99.90
2465;DHT22;1244;54.326;10.074;2022-12-18T03:45:37;-5.40;99.90
2465;DHT22;1244;54.326;10.074;2022-12-18T03:48:29;-5.40;99.90
2465;DHT22;1244;54.326;10.074;2022-12-18T03:51:08;-5.40;99.90
2465;DHT22;1244;54.326;10.074;2022-12-18T03:53:57;-5.40;99.90
2465;DHT22;1244;54.326;10.074;2022-12-18T03:56:28;-5.40;99.90
2465;DHT22;1244;54.326;10.074;2022-12-18T03:58:55;-5.50;99.90
2465;DHT22;1244;54.326;10.074;2022-12-18T04:01:25;-5.50;99.90
2465;DHT22;1244;54.326;10.074;2022-12-18T04:03:54;-5.40;99.90
2465;DHT22;1244;54.326;10.074;2022-12-18T04:06:21;-5.40;99.90
2465;DHT22;1244;54.326;10.074;2022-12-18T04:08:47;-5.40;99.90
2465;DHT22;1244;54.326;10.074;2022-12-18T04:11:13;-5.50;99.90
2465;DHT22;1244;54.326;10.074;2022-12-18T04:13:39;-5.50;99.90
2465;DHT22;1244;54.326;10.074;2022-12-18T04:16:05;-5.50;99.90
2465;DHT22;1244;54.326;10.074;2022-12-18T04:18:30;-5.50;99.90
2465;DHT22;1244;54.326;10.074;2022-12-18T04:20:56;-5.50;99.90
2465;DHT22;1244;54.326;10.074;2022-12-18T04:23:21;-5.50;99.90
2465;DHT22;1244;54.326;10.074;2022-12-18T04:25:47;-5.50;99.90
2465;DHT22;1244;54.326;10.074;2022-12-18T04:28:13;-5.50;99.90
2465;DHT22;1244;54.326;10.074;2022-12-18T04:30:38;-5.50;99.90
2465;DHT22;1244;54.326;10.074;2022-12-18T04:33:05;-5.50;99.90
2465;DHT22;1244;54.326;10.074;2022-12-18T04:35:33;-5.50;99.90
2465;DHT22;1244;54.326;10.074;2022-12-18T04:37:58;-5.40;99.90
2465;DHT22;1244;54.326;10.074;2022-12-18T04:40:24;-5.50;99.90
2465;DHT22;1244;54.326;10.074;2022-12-18T04:42:49;-5.50;99.90
2465;DHT22;1244;54.326;10.074;2022-12-18T04:45:14;-5.40;99.90
2465;DHT22;1244;54.326;10.074;2022-12-18T04:47:40;-5.50;99.90
2465;DHT22;1244;54.326;10.074;2022-12-18T04:50:06;-5.50;99.90
2465;DHT22;1244;54.326;10.074;2022-12-18T04:52:31;-5.50;99.90
2465;DHT22;1244;54.326;10.074;2022-12-18T04:54:57;-5.50;99.90
2465;DHT22;1244;54.326;10.074;2022-12-18T04:57:22;-5.50;99.90
2465;DHT22;1244;54.326;10.074;2022-12-18T04:59:48;-5.50;99.90
2465;DHT22;1244;54.326;10.074;2022-12-18T05:02:14;-5.50;99.90
2465;DHT22;1244;54.326;10.074;2022-12-18T05:04:40;-5.50;99.90
2465;DHT22;1244;54.326;10.074;2022-12-18T05:07:05;-5.50;99.90
2465;DHT22;1244;54.326;10.074;2022-12-18T05:09:31;-5.60;99.90
2465;DHT22;1244;54.326;10.074;2022-12-18T05:11:56;-5.50;99.90
2465;DHT22;1244;54.326;10.074;2022-12-18T05:14:22;-5.50;99.90
2465;DHT22;1244;54.326;10.074;2022-12-18T05:16:48;-5.60;99.90
2465;DHT22;1244;54.326;10.074;2022-12-18T05:19:13;-5.60;99.90
2465;DHT22;1244;54.326;10.074;2022-12-18T05:21:39;-5.60;99.90
2465;DHT22;1244;54.326;10.074;2022-12-18T05:24:04;-5.60;99.90
2465;DHT22;1244;54.326;10.074;2022-12-18T05:26:30;-5.60;99.90
2465;DHT22;1244;54.326;10.074;2022-12-18T05:28:56;-5.60;99.90
2465;DHT22;1244;54.326;10.074;2022-12-18T05:31:21;-5.60;99.90
2465;DHT22;1244;54.326;10.074;2022-12-18T05:33:50;-5.70;99.90
2465;DHT22;1244;54.326;10.074;2022-12-18T05:36:16;-5.70;99.90
2465;DHT22;1244;54.326;10.074;2022-12-18T05:38:41;-5.70;99.90
2465;DHT22;1244;54.326;10.074;2022-12-18T05:41:07;-5.70;99.90
2465;DHT22;1244;54.326;10.074;2022-12-18T05:43:35;-5.80;99.90
2465;DHT22;1244;54.326;10.074;2022-12-18T05:46:09;-5.80;99.90
2465;DHT22;1244;54.326;10.074;2022-12-18T05:48:36;-5.80;99.90
2465;DHT22;1244;54.326;10.074;2022-12-18T05:51:07;-5.80;99.90
2465;DHT22;1244;54.326;10.074;2022-12-18T05:53:33;-5.80;99.90
2465;DHT22;1244;54.326;10.074;2022-12-18T05:56:00;-5.80;99.90
2465;DHT22;1244;54.326;10.074;2022-12-18T05:58:27;-5.80;99.90
2465;DHT22;1244;54.326;10.074;2022-12-18T06:00:52;-5.90;99.90
2465;DHT22;1244;54.326;10.074;2022-12-18T06:03:17;-5.90;99.90
2465;DHT22;1244;54.326;10.074;2022-12-18T06:05:44;-5.90;99.90
2465;DHT22;1244;54.326;10.074;2022-12-18T06:08:11;-5.90;99.90
2465;DHT22;1244;54.326;10.074;2022-12-18T06:10:37;-5.90;99.90
2465;DHT22;1244;54.326;10.074;2022-12-18T06:13:03;-5.90;99.90
2465;DHT22;1244;54.326;10.074;2022-12-18T06:15:29;-5.90;99.90
2465;DHT22;1244;54.326;10.074;2022-12-18T06:17:55;-6.00;99.90
2465;DHT22;1244;54.326;10.074;2022-12-18T06:20:21;-6.00;99.90
2465;DHT22;1244;54.326;10.074;2022-12-18T06:22:46;-6.00;99.90
2465;DHT22;1244;54.326;10.074;2022-12-18T06:25:12;-6.00;99.90
2465;DHT22;1244;54.326;10.074;2022-12-18T06:27:37;-6.00;99.90
2465;DHT22;1244;54.326;10.074;2022-12-18T06:30:03;-6.00;99.90
2465;DHT22;1244;54.326;10.074;2022-12-18T06:32:29;-6.10;99.90
2465;DHT22;1244;54.326;10.074;2022-12-18T06:34:55;-6.10;99.90
2465;DHT22;1244;54.326;10.074;2022-12-18T06:37:20;-6.20;99.90
2465;DHT22;1244;54.326;10.074;2022-12-18T06:39:46;-6.20;99.90
2465;DHT22;1244;54.326;10.074;2022-12-18T06:42:12;-6.20;99.90
2465;DHT22;1244;54.326;10.074;2022-12-18T06:44:37;-6.20;99.90
2465;DHT22;1244;54.326;10.074;2022-12-18T06:47:03;-6.30;99.90
2465;DHT22;1244;54.326;10.074;2022-12-18T06:49:28;-6.20;99.90
2465;DHT22;1244;54.326;10.074;2022-12-18T06:51:54;-6.30;99.90
2465;DHT22;1244;54.326;10.074;2022-12-18T06:54:19;-6.30;99.90
2465;DHT22;1244;54.326;10.074;2022-12-18T06:56:46;-6.30;99.90
2465;DHT22;1244;54.326;10.074;2022-12-18T06:59:13;-6.30;99.90
2465;DHT22;1244;54.326;10.074;2022-12-18T07:01:38;-6.30;99.90
2465;DHT22;1244;54.326;10.074;2022-12-18T07:04:04;-6.30;99.90
2465;DHT22;1244;54.326;10.074;2022-12-18T07:06:29;-6.30;99.90
2465;DHT22;1244;54.326;10.074;2022-12-18T07:08:55;-6.30;99.90
2465;DHT22;1244;54.326;10.074;2022-12-18T07:11:21;-6.30;99.90
2465;DHT22;1244;54.326;10.074;2022-12-18T07:13:47;-6.40;99.90
2465;DHT22;1244;54.326;10.074;2022-12-18T07:16:18;-6.40;99.90
2465;DHT22;1244;54.326;10.074;2022-12-18T07:18:44;-6.40;99.90
2465;DHT22;1244;54.326;10.074;2022-12-18T07:21:12;-6.40;99.90
2465;DHT22;1244;54.326;10.074;2022-12-18T07:23:38;-6.40;99.90
2465;DHT22;1244;54.326;10.074;2022-12-18T07:26:06;-6.40;99.90
2465;DHT22;1244;54.326;10.074;2022-12-18T07:28:33;-6.40;99.90
2465;DHT22;1244;54.326;10.074;2022-12-18T07:31:03;-6.40;99.90
2465;DHT22;1244;54.326;10.074;2022-12-18T07:33:29;-6.30;99.90
2465;DHT22;1244;54.326;10.074;2022-12-18T07:35:54;-6.30;99.90
2465;DHT22;1244;54.326;10.074;2022-12-18T07:38:20;-6.20;99.90
2465;DHT22;1244;54.326;10.074;2022-12-18T07:40:46;-6.30;99.90
2465;DHT22;1244;54.326;10.074;2022-12-18T07:43:11;-6.40;99.90
2465;DHT22;1244;54.326;10.074;2022-12-18T07:45:37;-6.40;99.90
2465;DHT22;1244;54.326;10.074;2022-12-18T07:48:02;-6.50;99.90
2465;DHT22;1244;54.326;10.074;2022-12-18T07:50:28;-6.50;99.90
2465;DHT22;1244;54.326;10.074;2022-12-18T07:52:53;-6.50;99.90
2465;DHT22;1244;54.326;10.074;2022-12-18T07:55:19;-6.50;99.90
2465;DHT22;1244;54.326;10.074;2022-12-18T07:57:44;-6.50;99.90
2465;DHT22;1244;54.326;10.074;2022-12-18T08:00:12;-6.50;99.90
2465;DHT22;1244;54.326;10.074;2022-12-18T08:02:38;-6.50;99.90
2465;DHT22;1244;54.326;10.074;2022-12-18T08:05:04;-6.50;99.90
2465;DHT22;1244;54.326;10.074;2022-12-18T08:07:29;-6.60;99.90
2465;DHT22;1244;54.326;10.074;2022-12-18T08:09:55;-6.50;99.90
2465;DHT22;1244;54.326;10.074;2022-12-18T08:12:20;-6.50;99.90
2465;DHT22;1244;54.326;10.074;2022-12-18T08:14:46;-6.60;99.90
2465;DHT22;1244;54.326;10.074;2022-12-18T08:17:11;-6.60;99.90
2465;DHT22;1244;54.326;10.074;2022-12-18T08:19:37;-6.60;99.90
2465;DHT22;1244;54.326;10.074;2022-12-18T08:22:02;-6.50;99.90
2465;DHT22;1244;54.326;10.074;2022-12-18T08:24:28;-6.50;99.90
2465;DHT22;1244;54.326;10.074;2022-12-18T08:26:53;-6.50;99.90
2465;DHT22;1244;54.326;10.074;2022-12-18T08:29:19;-6.50;99.90
2465;DHT22;1244;54.326;10.074;2022-12-18T08:31:45;-6.40;99.90
2465;DHT22;1244;54.326;10.074;2022-12-18T08:34:10;-6.40;99.90
2465;DHT22;1244;54.326;10.074;2022-12-18T08:36:36;-6.30;99.90
2465;DHT22;1244;54.326;10.074;2022-12-18T08:39:01;-6.20;99.90
2465;DHT22;1244;54.326;10.074;2022-12-18T08:41:27;-6.20;99.90
2465;DHT22;1244;54.326;10.074;2022-12-18T08:43:52;-6.10;99.90
2465;DHT22;1244;54.326;10.074;2022-12-18T08:46:38;-5.90;99.90
2465;DHT22;1244;54.326;10.074;2022-12-18T08:49:05;-5.90;99.90
2465;DHT22;1244;54.326;10.074;2022-12-18T08:51:32;-5.80;99.90
2465;DHT22;1244;54.326;10.074;2022-12-18T08:53:58;-5.80;99.90
2465;DHT22;1244;54.326;10.074;2022-12-18T08:56:23;-5.70;99.90
2465;DHT22;1244;54.326;10.074;2022-12-18T08:58:52;-5.70;99.90
2465;DHT22;1244;54.326;10.074;2022-12-18T09:01:18;-5.60;99.90
2465;DHT22;1244;54.326;10.074;2022-12-18T09:03:47;-5.60;99.90
2465;DHT22;1244;54.326;10.074;2022-12-18T09:06:15;-5.60;99.90
2465;DHT22;1244;54.326;10.074;2022-12-18T09:08:41;-5.50;99.90
2465;DHT22;1244;54.326;10.074;2022-12-18T09:11:14;-5.50;99.90
2465;DHT22;1244;54.326;10.074;2022-12-18T09:13:39;-5.50;99.90
2465;DHT22;1244;54.326;10.074;2022-12-18T09:16:05;-5.40;99.90
2465;DHT22;1244;54.326;10.074;2022-12-18T09:18:31;-5.30;99.90
2465;DHT22;1244;54.326;10.074;2022-12-18T09:20:56;-5.30;99.90
2465;DHT22;1244;54.326;10.074;2022-12-18T09:23:22;-5.20;99.90
2465;DHT22;1244;54.326;10.074;2022-12-18T09:25:48;-5.20;99.90
2465;DHT22;1244;54.326;10.074;2022-12-18T09:28:18;-5.00;99.90
2465;DHT22;1244;54.326;10.074;2022-12-18T09:30:46;-4.70;99.90
2465;DHT22;1244;54.326;10.074;2022-12-18T09:33:12;-4.60;99.90
2465;DHT22;1244;54.326;10.074;2022-12-18T09:35:42;-4.40;99.90
2465;DHT22;1244;54.326;10.074;2022-12-18T09:38:12;-4.30;99.90
2465;DHT22;1244;54.326;10.074;2022-12-18T09:40:49;-4.20;99.90
2465;DHT22;1244;54.326;10.074;2022-12-18T09:43:19;-4.20;99.90
2465;DHT22;1244;54.326;10.074;2022-12-18T09:45:49;-3.80;99.90
2465;DHT22;1244;54.326;10.074;2022-12-18T09:48:25;-3.40;99.90
2465;DHT22;1244;54.326;10.074;2022-12-18T09:50:55;-3.40;99.90
2465;DHT22;1244;54.326;10.074;2022-12-18T09:53:27;-3.60;99.90
2465;DHT22;1244;54.326;10.074;2022-12-18T09:55:54;-2.80;99.90
2465;DHT22;1244;54.326;10.074;2022-12-18T09:58:39;-2.30;99.90
2465;DHT22;1244;54.326;10.074;2022-12-18T10:01:20;-2.70;99.90
2465;DHT22;1244;54.326;10.074;2022-12-18T10:03:47;-3.50;99.90
2465;DHT22;1244;54.326;10.074;2022-12-18T10:06:18;-3.70;99.90
2465;DHT22;1244;54.326;10.074;2022-12-18T10:08:51;-3.90;99.90
2465;DHT22;1244;54.326;10.074;2022-12-18T10:11:31;-4.00;99.90
2465;DHT22;1244;54.326;10.074;2022-12-18T10:14:20;-3.90;99.90
2465;DHT22;1244;54.326;10.074;2022-12-18T10:16:58;-4.00;99.90
2465;DHT22;1244;54.326;10.074;2022-12-18T10:19:36;-3.80;99.90
2465;DHT22;1244;54.326;10.074;2022-12-18T10:25:03;-3.40;99.90
2465;DHT22;1244;54.326;10.074;2022-12-18T10:27:27;-3.20;99.90
2465;DHT22;1244;54.326;10.074;2022-12-18T10:29:53;-3.10;99.90
2465;DHT22;1244;54.326;10.074;2022-12-18T10:32:22;-1.80;99.90
2465;DHT22;1244;54.326;10.074;2022-12-18T10:34:50;-1.20;99.90
2465;DHT22;1244;54.326;10.074;2022-12-18T10:37:17;-1.10;99.90
2465;DHT22;1244;54.326;10.074;2022-12-18T10:39:44;-1.20;99.90
2465;DHT22;1244;54.326;10.074;2022-12-18T10:42:17;-1.50;99.90
2465;DHT22;1244;54.326;10.074;2022-12-18T10:44:43;-1.90;99.90
2465;DHT22;1244;54.326;10.074;2022-12-18T10:47:14;-2.10;99.90
2465;DHT22;1244;54.326;10.074;2022-12-18T10:49:48;-2.10;99.90
2465;DHT22;1244;54.326;10.074;2022-12-18T10:52:18;-2.00;99.90
2465;DHT22;1244;54.326;10.074;2022-12-18T10:54:49;-2.20;99.90
2465;DHT22;1244;54.326;10.074;2022-12-18T10:57:19;-2.40;99.90
2465;DHT22;1244;54.326;10.074;2022-12-18T10:59:55;-2.60;99.90
2465;DHT22;1244;54.326;10.074;2022-12-18T11:02:39;-2.60;99.90
2465;DHT22;1244;54.326;10.074;2022-12-18T11:07:54;-2.60;99.90
2465;DHT22;1244;54.326;10.074;2022-12-18T11:10:25;-2.70;99.90
2465;DHT22;1244;54.326;10.074;2022-12-18T11:12:51;-2.70;99.90
2465;DHT22;1244;54.326;10.074;2022-12-18T11:15:29;-2.70;99.90
2465;DHT22;1244;54.326;10.074;2022-12-18T11:17:55;-2.50;99.90
2465;DHT22;1244;54.326;10.074;2022-12-18T11:20:31;-2.20;99.90
2465;DHT22;1244;54.326;10.074;2022-12-18T11:22:59;-2.10;99.90
2465;DHT22;1244;54.326;10.074;2022-12-18T11:25:29;-2.10;99.90
2465;DHT22;1244;54.326;10.074;2022-12-18T11:28:04;-2.30;99.90
2465;DHT22;1244;54.326;10.074;2022-12-18T11:30:35;-2.40;99.90
2465;DHT22;1244;54.326;10.074;2022-12-18T11:33:08;-2.60;99.90
2465;DHT22;1244;54.326;10.074;2022-12-18T11:38:17;-2.80;99.90
2465;DHT22;1244;54.326;10.074;2022-12-18T11:40:49;-3.00;99.90
2465;DHT22;1244;54.326;10.074;2022-12-18T11:43:27;-3.00;99.90
2465;DHT22;1244;54.326;10.074;2022-12-18T11:45:59;-3.00;99.90
2465;DHT22;1244;54.326;10.074;2022-12-18T11:48:30;-3.00;99.90
2465;DHT22;1244;54.326;10.074;2022-12-18T11:51:00;-2.90;99.90
2465;DHT22;1244;54.326;10.074;2022-12-18T11:53:27;-2.90;99.90
2465;DHT22;1244;54.326;10.074;2022-12-18T11:56:16;-2.60;99.90
2465;DHT22;1244;54.326;10.074;2022-12-18T12:09:51;-2.50;99.90
2465;DHT22;1244;54.326;10.074;2022-12-18T12:12:34;-2.50;99.90
2465;DHT22;1244;54.326;10.074;2022-12-18T12:17:56;-2.70;99.90
2465;DHT22;1244;54.326;10.074;2022-12-18T12:20:53;-2.70;99.90
2465;DHT22;1244;54.326;10.074;2022-12-18T12:26:21;-2.80;99.90
2465;DHT22;1244;54.326;10.074;2022-12-18T12:29:06;-2.70;99.90
2465;DHT22;1244;54.326;10.074;2022-12-18T12:34:23;-2.80;99.90
2465;DHT22;1244;54.326;10.074;2022-12-18T12:37:25;-2.80;99.90
2465;DHT22;1244;54.326;10.074;2022-12-18T12:39:56;-2.50;99.90
2465;DHT22;1244;54.326;10.074;2022-12-18T12:42:41;-2.60;99.90
2465;DHT22;1244;54.326;10.074;2022-12-18T12:45:40;-2.70;99.90
2465;DHT22;1244;54.326;10.074;2022-12-18T12:48:16;-2.80;99.90
2465;DHT22;1244;54.326;10.074;2022-12-18T12:50:42;-2.80;99.90
2465;DHT22;1244;54.326;10.074;2022-12-18T12:53:21;-3.00;99.90
2465;DHT22;1244;54.326;10.074;2022-12-18T12:55:50;-2.90;99.90
2465;DHT22;1244;54.326;10.074;2022-12-18T13:01:13;-2.90;99.90
2465;DHT22;1244;54.326;10.074;2022-12-18T13:06:58;-2.90;99.90
2465;DHT22;1244;54.326;10.074;2022-12-18T13:13:14;-3.00;99.90
2465;DHT22;1244;54.326;10.074;2022-12-18T13:15:47;-3.00;99.90
2465;DHT22;1244;54.326;10.074;2022-12-18T13:18:22;-3.10;99.90
2465;DHT22;1244;54.326;10.074;2022-12-18T13:23:31;-3.00;99.90
2465;DHT22;1244;54.326;10.074;2022-12-18T13:34:16;-3.30;99.90
2465;DHT22;1244;54.326;10.074;2022-12-18T13:36:42;-3.20;99.90
2465;DHT22;1244;54.326;10.074;2022-12-18T13:41:41;-3.20;99.90
2465;DHT22;1244;54.326;10.074;2022-12-18T13:44:12;-3.30;99.90
2465;DHT22;1244;54.326;10.074;2022-12-18T13:46:50;-3.30;99.90
2465;DHT22;1244;54.326;10.074;2022-12-18T13:49:23;-3.40;99.90
2465;DHT22;1244;54.326;10.074;2022-12-18T13:51:54;-3.40;99.90
2465;DHT22;1244;54.326;10.074;2022-12-18T13:54:40;-3.50;99.90
2465;DHT22;1244;54.326;10.074;2022-12-18T13:57:29;-3.50;99.90
2465;DHT22;1244;54.326;10.074;2022-12-18T13:59:57;-3.60;99.90
2465;DHT22;1244;54.326;10.074;2022-12-18T14:05:31;-3.70;99.90
2465;DHT22;1244;54.326;10.074;2022-12-18T14:08:11;-3.80;99.90
2465;DHT22;1244;54.326;10.074;2022-12-18T14:13:39;-3.80;99.90
2465;DHT22;1244;54.326;10.074;2022-12-18T14:16:11;-3.90;99.90
2465;DHT22;1244;54.326;10.074;2022-12-18T14:18:43;-4.00;99.90
2465;DHT22;1244;54.326;10.074;2022-12-18T14:21:30;-4.00;99.90
2465;DHT22;1244;54.326;10.074;2022-12-18T14:26:40;-4.10;99.90
2465;DHT22;1244;54.326;10.074;2022-12-18T14:29:28;-4.10;99.90
2465;DHT22;1244;54.326;10.074;2022-12-18T14:32:17;-4.20;99.90
2465;DHT22;1244;54.326;10.074;2022-12-18T14:34:51;-4.20;99.90
2465;DHT22;1244;54.326;10.074;2022-12-18T14:37:22;-4.30;99.90
2465;DHT22;1244;54.326;10.074;2022-12-18T14:39:56;-4.30;99.90
2465;DHT22;1244;54.326;10.074;2022-12-18T14:42:23;-4.40;99.90
2465;DHT22;1244;54.326;10.074;2022-12-18T14:47:58;-4.40;99.90
2465;DHT22;1244;54.326;10.074;2022-12-18T14:50:23;-4.40;99.90
2465;DHT22;1244;54.326;10.074;2022-12-18T14:52:50;-4.50;99.90
2465;DHT22;1244;54.326;10.074;2022-12-18T14:55:20;-4.50;99.90
2465;DHT22;1244;54.326;10.074;2022-12-18T14:57:52;-4.50;99.90
2465;DHT22;1244;54.326;10.074;2022-12-18T15:00:21;-4.50;99.90
2465;DHT22;1244;54.326;10.074;2022-12-18T15:02:54;-4.50;99.90
2465;DHT22;1244;54.326;10.074;2022-12-18T15:05:25;-4.50;99.90
2465;DHT22;1244;54.326;10.074;2022-12-18T15:07:53;-4.50;99.90
2465;DHT22;1244;54.326;10.074;2022-12-18T15:10:27;-4.60;99.90
2465;DHT22;1244;54.326;10.074;2022-12-18T15:20:50;-4.70;99.90
2465;DHT22;1244;54.326;10.074;2022-12-18T15:23:25;-4.70;99.90
2465;DHT22;1244;54.326;10.074;2022-12-18T15:33:32;-4.70;99.90
2465;DHT22;1244;54.326;10.074;2022-12-18T15:36:04;-4.70;99.90
2465;DHT22;1244;54.326;10.074;2022-12-18T15:38:30;-4.70;99.90
2465;DHT22;1244;54.326;10.074;2022-12-18T15:40:56;-4.70;99.90
2465;DHT22;1244;54.326;10.074;2022-12-18T15:43:23;-4.70;99.90
2465;DHT22;1244;54.326;10.074;2022-12-18T15:46:11;-4.70;99.90
2465;DHT22;1244;54.326;10.074;2022-12-18T15:48:43;-4.70;99.90
2465;DHT22;1244;54.326;10.074;2022-12-18T15:53:42;-4.80;99.90
2465;DHT22;1244;54.326;10.074;2022-12-18T15:56:12;-4.70;99.90
2465;DHT22;1244;54.326;10.074;2022-12-18T15:58:56;-4.70;99.90
2465;DHT22;1244;54.326;10.074;2022-12-18T16:01:24;-4.70;99.90
2465;DHT22;1244;54.326;10.074;2022-12-18T16:03:50;-4.80;99.90
2465;DHT22;1244;54.326;10.074;2022-12-18T16:06:16;-4.80;99.90
2465;DHT22;1244;54.326;10.074;2022-12-18T16:08:41;-4.80;99.90
2465;DHT22;1244;54.326;10.074;2022-12-18T16:11:20;-4.80;99.90
2465;DHT22;1244;54.326;10.074;2022-12-18T16:14:25;-4.80;99.90
2465;DHT22;1244;54.326;10.074;2022-12-18T16:16:57;-4.80;99.90
2465;DHT22;1244;54.326;10.074;2022-12-18T16:19:23;-4.80;99.90
2465;DHT22;1244;54.326;10.074;2022-12-18T16:21:51;-4.80;99.90
2465;DHT22;1244;54.326;10.074;2022-12-18T16:24:18;-4.80;99.90
2465;DHT22;1244;54.326;10.074;2022-12-18T16:26:44;-4.80;99.90
2465;DHT22;1244;54.326;10.074;2022-12-18T16:29:09;-4.80;99.90
2465;DHT22;1244;54.326;10.074;2022-12-18T16:31:35;-4.80;99.90
2465;DHT22;1244;54.326;10.074;2022-12-18T16:36:37;-4.80;99.90
2465;DHT22;1244;54.326;10.074;2022-12-18T16:39:02;-4.80;99.90
2465;DHT22;1244;54.326;10.074;2022-12-18T16:41:28;-4.80;99.90
2465;DHT22;1244;54.326;10.074;2022-12-18T16:43:59;-4.70;99.90
2465;DHT22;1244;54.326;10.074;2022-12-18T16:46:24;-4.70;99.90
2465;DHT22;1244;54.326;10.074;2022-12-18T16:48:50;-4.70;99.90
2465;DHT22;1244;54.326;10.074;2022-12-18T16:51:15;-4.70;99.90
2465;DHT22;1244;54.326;10.074;2022-12-18T16:53:41;-4.70;99.90
2465;DHT22;1244;54.326;10.074;2022-12-18T16:56:06;-4.70;99.90
2465;DHT22;1244;54.326;10.074;2022-12-18T16:58:32;-4.70;99.90
2465;DHT22;1244;54.326;10.074;2022-12-18T17:00:58;-4.70;99.90
2465;DHT22;1244;54.326;10.074;2022-12-18T17:03:24;-4.80;99.90
2465;DHT22;1244;54.326;10.074;2022-12-18T17:05:49;-4.80;99.90
2465;DHT22;1244;54.326;10.074;2022-12-18T17:08:15;-4.80;99.90
2465;DHT22;1244;54.326;10.074;2022-12-18T17:10:40;-4.80;99.90
2465;DHT22;1244;54.326;10.074;2022-12-18T17:13:06;-4.80;99.90
2465;DHT22;1244;54.326;10.074;2022-12-18T17:15:34;-4.80;99.90
2465;DHT22;1244;54.326;10.074;2022-12-18T17:18:00;-4.80;99.90
2465;DHT22;1244;54.326;10.074;2022-12-18T17:20:26;-4.80;99.90
2465;DHT22;1244;54.326;10.074;2022-12-18T17:22:52;-4.80;99.90
2465;DHT22;1244;54.326;10.074;2022-12-18T17:25:17;-4.80;99.90
2465;DHT22;1244;54.326;10.074;2022-12-18T17:27:43;-4.80;99.90
2465;DHT22;1244;54.326;10.074;2022-12-18T17:30:09;-4.70;99.90
2465;DHT22;1244;54.326;10.074;2022-12-18T17:32:36;-4.80;99.90
2465;DHT22;1244;54.326;10.074;2022-12-18T17:35:02;-4.70;99.90
2465;DHT22;1244;54.326;10.074;2022-12-18T17:37:28;-4.70;99.90
2465;DHT22;1244;54.326;10.074;2022-12-18T17:39:53;-4.70;99.90
2465;DHT22;1244;54.326;10.074;2022-12-18T17:42:19;-4.70;99.90
2465;DHT22;1244;54.326;10.074;2022-12-18T17:44:45;-4.70;99.90
2465;DHT22;1244;54.326;10.074;2022-12-18T17:47:11;-4.60;99.90